sensor_id;sensor_type;location;lat;lon;timestamp;temperature;humidity
22430;DHT22;11382;48.086;11.632;2023-05-10T00:01:22;13.50;99.90
22430;DHT22;11382;48.086;11.632;2023-05-10T00:03:50;13.40;99.90
22430;DHT22;11382;48.086;11.632;2023-05-10T00:06:19;13.50;99.90
22430;DHT22;11382;48.086;11.632;2023-05-10T00:08:47;13.40;99.90
22430;DHT22;11382;48.086;11.632;2023-05-10T00:11:15;13.40;99.90
22430;DHT22;11382;48.086;11.632;2023-05-10T00:13:43;13.40;99.90
22430;DHT22;11382;48.086;11.632;2023-05-10T00:16:12;13.40;99.90
22430;DHT22;11382;48.086;11.632;2023-05-10T00:18:40;13.40;99.90
22430;DHT22;11382;48.086;11.632;2023-05-10T00:21:08;13.40;99.90
22430;DHT22;11382;48.086;11.632;2023-05-10T00:23:37;13.40;99.90
22430;DHT22;11382;48.086;11.632;2023-05-10T00:26:05;13.40;99.90
22430;DHT22;11382;48.086;11.632;2023-05-10T00:28:33;13.30;99.90
22430;DHT22;11382;48.086;11.632;2023-05-10T00:31:02;13.30;99.90
22430;DHT22;11382;48.086;11.632;2023-05-10T00:33:30;13.40;99.90
22430;DHT22;11382;48.086;11.632;2023-05-10T00:35:58;13.40;99.90
22430;DHT22;11382;48.086;11.632;2023-05-10T00:38:26;13.30;99.90
22430;DHT22;11382;48.086;11.632;2023-05-10T00:40:55;13.30;99.90
22430;DHT22;11382;48.086;11.632;2023-05-10T00:43:28;13.30;99.90
22430;DHT22;11382;48.086;11.632;2023-05-10T00:45:56;13.30;99.90
22430;DHT22;11382;48.086;11.632;2023-05-10T00:48:24;13.30;99.90
22430;DHT22;11382;48.086;11.632;2023-05-10T00:50:53;13.30;99.90
22430;DHT22;11382;48.086;11.632;2023-05-10T00:53:21;13.30;99.90
22430;DHT22;11382;48.086;11.632;2023-05-10T00:55:49;13.30;99.90
22430;DHT22;11382;48.086;11.632;2023-05-10T00:58:19;13.40;99.90
22430;DHT22;11382;48.086;11.632;2023-05-10T01:00:47;13.40;99.90
22430;DHT22;11382;48.086;11.632;2023-05-10T01:03:15;13.40;99.90
22430;DHT22;11382;48.086;11.632;2023-05-10T01:05:44;13.40;99.90
22430;DHT22;11382;48.086;11.632;2023-05-10T01:08:11;13.30;99.90
22430;DHT22;11382;48.086;11.632;2023-05-10T01:10:40;13.20;99.90
22430;DHT22;11382;48.086;11.632;2023-05-10T01:13:09;13.20;99.90
22430;DHT22;11382;48.086;11.632;2023-05-10T01:15:38;13.20;99.90
22430;DHT22;11382;48.086;11.632;2023-05-10T01:18:08;13.10;99.90
22430;DHT22;11382;48.086;11.632;2023-05-10T01:20:43;13.10;99.90
22430;DHT22;11382;48.086;11.632;2023-05-10T01:23:42;13.10;99.90
22430;DHT22;11382;48.086;11.632;2023-05-10T01:26:28;13.10;99.90
22430;DHT22;11382;48.086;11.632;2023-05-10T01:29:25;13.10;99.90
22430;DHT22;11382;48.086;11.632;2023-05-10T01:34:56;13.10;99.90
22430;DHT22;11382;48.086;11.632;2023-05-10T01:37:33;13.10;99.90
22430;DHT22;11382;48.086;11.632;2023-05-10T01:40:09;13.10;99.90
22430;DHT22;11382;48.086;11.632;2023-05-10T01:42:46;13.10;99.90
22430;DHT22;11382;48.086;11.632;2023-05-10T01:45:20;13.10;99.90
22430;DHT22;11382;48.086;11.632;2023-05-10T01:47:57;13.00;99.90
22430;DHT22;11382;48.086;11.632;2023-05-10T01:50:30;13.00;99.90
22430;DHT22;11382;48.086;11.632;2023-05-10T01:53:03;13.00;99.90
22430;DHT22;11382;48.086;11.632;2023-05-10T01:55:35;13.00;99.90
22430;DHT22;11382;48.086;11.632;2023-05-10T01:58:06;13.00;99.90
22430;DHT22;11382;48.086;11.632;2023-05-10T02:00:35;13.00;99.90
22430;DHT22;11382;48.086;11.632;2023-05-10T02:03:10;13.00;99.90
22430;DHT22;11382;48.086;11.632;2023-05-10T02:05:39;13.00;99.90
22430;DHT22;11382;48.086;11.632;2023-05-10T02:08:07;13.00;99.90
22430;DHT22;11382;48.086;11.632;2023-05-10T02:10:37;13.00;99.90
22430;DHT22;11382;48.086;11.632;2023-05-10T02:13:07;13.00;99.90
22430;DHT22;11382;48.086;11.632;2023-05-10T02:15:38;13.00;99.90
22430;DHT22;11382;48.086;11.632;2023-05-10T02:18:09;13.00;99.90
22430;DHT22;11382;48.086;11.632;2023-05-10T02:20:39;12.90;99.90
22430;DHT22;11382;48.086;11.632;2023-05-10T02:23:07;13.00;99.90
22430;DHT22;11382;48.086;11.632;2023-05-10T02:25:37;12.90;99.90
22430;DHT22;11382;48.086;11.632;2023-05-10T02:28:07;13.00;99.90
22430;DHT22;11382;48.086;11.632;2023-05-10T02:30:36;13.00;99.90
22430;DHT22;11382;48.086;11.632;2023-05-10T02:33:06;13.00;99.90
22430;DHT22;11382;48.086;11.632;2023-05-10T02:35:36;13.00;99.90
22430;DHT22;11382;48.086;11.632;2023-05-10T02:38:06;13.00;99.90
22430;DHT22;11382;48.086;11.632;2023-05-10T02:40:36;13.00;99.90
22430;DHT22;11382;48.086;11.632;2023-05-10T02:43:06;13.00;99.90
22430;DHT22;11382;48.086;11.632;2023-05-10T02:45:37;13.00;99.90
22430;DHT22;11382;48.086;11.632;2023-05-10T02:48:06;13.00;99.90
22430;DHT22;11382;48.086;11.632;2023-05-10T02:50:37;13.00;99.90
22430;DHT22;11382;48.086;11.632;2023-05-10T02:53:10;13.00;99.90
22430;DHT22;11382;48.086;11.632;2023-05-10T02:55:40;13.00;99.90
22430;DHT22;11382;48.086;11.632;2023-05-10T02:58:08;12.90;99.90
22430;DHT22;11382;48.086;11.632;2023-05-10T03:00:36;12.90;99.90
22430;DHT22;11382;48.086;11.632;2023-05-10T03:03:04;12.90;99.90
22430;DHT22;11382;48.086;11.632;2023-05-10T03:05:33;12.90;99.90
22430;DHT22;11382;48.086;11.632;2023-05-10T03:08:04;12.80;99.90
22430;DHT22;11382;48.086;11.632;2023-05-10T03:10:40;12.90;99.90
22430;DHT22;11382;48.086;11.632;2023-05-10T03:13:15;12.80;99.90
22430;DHT22;11382;48.086;11.632;2023-05-10T03:15:50;12.90;99.90
22430;DHT22;11382;48.086;11.632;2023-05-10T03:18:28;12.80;99.90
22430;DHT22;11382;48.086;11.632;2023-05-10T03:21:02;12.90;99.90
22430;DHT22;11382;48.086;11.632;2023-05-10T03:23:36;12.80;99.90
22430;DHT22;11382;48.086;11.632;2023-05-10T03:26:08;12.80;99.90
22430;DHT22;11382;48.086;11.632;2023-05-10T03:28:38;12.80;99.90
22430;DHT22;11382;48.086;11.632;2023-05-10T03:31:07;12.80;99.90
22430;DHT22;11382;48.086;11.632;2023-05-10T03:33:46;12.80;99.90
22430;DHT22;11382;48.086;11.632;2023-05-10T03:36:15;12.80;99.90
22430;DHT22;11382;48.086;11.632;2023-05-10T03:38:45;12.80;99.90
22430;DHT22;11382;48.086;11.632;2023-05-10T03:41:13;12.80;99.90
22430;DHT22;11382;48.086;11.632;2023-05-10T03:43:42;12.80;99.90
22430;DHT22;11382;48.086;11.632;2023-05-10T03:46:09;12.80;99.90
22430;DHT22;11382;48.086;11.632;2023-05-10T03:48:38;12.70;99.90
22430;DHT22;11382;48.086;11.632;2023-05-10T03:51:06;12.70;99.90
22430;DHT22;11382;48.086;11.632;2023-05-10T03:53:34;12.70;99.90
22430;DHT22;11382;48.086;11.632;2023-05-10T03:56:05;12.70;99.90
22430;DHT22;11382;48.086;11.632;2023-05-10T03:58:34;12.80;99.90
22430;DHT22;11382;48.086;11.632;2023-05-10T04:01:03;12.70;99.90
22430;DHT22;11382;48.086;11.632;2023-05-10T04:03:31;12.80;99.90
22430;DHT22;11382;48.086;11.632;2023-05-10T04:06:00;12.80;99.90
22430;DHT22;11382;48.086;11.632;2023-05-10T04:08:28;12.80;99.90
22430;DHT22;11382;48.086;11.632;2023-05-10T04:11:06;12.80;99.90
22430;DHT22;11382;48.086;11.632;2023-05-10T04:13:35;12.90;99.90
22430;DHT22;11382;48.086;11.632;2023-05-10T04:16:04;13.00;99.90
22430;DHT22;11382;48.086;11.632;2023-05-10T04:18:32;13.00;99.90
22430;DHT22;11382;48.086;11.632;2023-05-10T04:21:01;13.00;99.90
22430;DHT22;11382;48.086;11.632;2023-05-10T04:23:30;13.00;99.90
22430;DHT22;11382;48.086;11.632;2023-05-10T04:26:01;13.10;99.90
22430;DHT22;11382;48.086;11.632;2023-05-10T04:28:31;13.00;99.90
22430;DHT22;11382;48.086;11.632;2023-05-10T04:31:02;13.00;99.90
22430;DHT22;11382;48.086;11.632;2023-05-10T04:33:31;12.90;99.90
22430;DHT22;11382;48.086;11.632;2023-05-10T04:35:59;12.80;99.90
22430;DHT22;11382;48.086;11.632;2023-05-10T04:38:27;12.80;99.90
22430;DHT22;11382;48.086;11.632;2023-05-10T04:41:04;12.90;99.90
22430;DHT22;11382;48.086;11.632;2023-05-10T04:43:34;13.00;99.90
22430;DHT22;11382;48.086;11.632;2023-05-10T04:46:05;13.00;99.90
22430;DHT22;11382;48.086;11.632;2023-05-10T04:48:34;13.00;99.90
22430;DHT22;11382;48.086;11.632;2023-05-10T04:51:02;13.00;99.90
22430;DHT22;11382;48.086;11.632;2023-05-10T04:53:31;12.90;99.90
22430;DHT22;11382;48.086;11.632;2023-05-10T04:56:00;12.80;99.90
22430;DHT22;11382;48.086;11.632;2023-05-10T04:58:28;12.80;99.90
22430;DHT22;11382;48.086;11.632;2023-05-10T05:01:04;12.80;99.90
22430;DHT22;11382;48.086;11.632;2023-05-10T05:03:38;12.80;99.90
22430;DHT22;11382;48.086;11.632;2023-05-10T05:06:08;12.70;99.90
22430;DHT22;11382;48.086;11.632;2023-05-10T05:08:36;12.80;99.90
22430;DHT22;11382;48.086;11.632;2023-05-10T05:11:05;12.70;99.90
22430;DHT22;11382;48.086;11.632;2023-05-10T05:13:33;12.70;99.90
22430;DHT22;11382;48.086;11.632;2023-05-10T05:16:03;12.70;99.90
22430;DHT22;11382;48.086;11.632;2023-05-10T05:18:31;12.60;99.90
22430;DHT22;11382;48.086;11.632;2023-05-10T05:20:59;12.60;99.90
22430;DHT22;11382;48.086;11.632;2023-05-10T05:23:27;12.60;99.90
22430;DHT22;11382;48.086;11.632;2023-05-10T05:25:55;12.60;99.90
22430;DHT22;11382;48.086;11.632;2023-05-10T05:28:23;12.60;99.90
22430;DHT22;11382;48.086;11.632;2023-05-10T05:30:59;12.60;99.90
22430;DHT22;11382;48.086;11.632;2023-05-10T05:33:29;12.50;99.90
22430;DHT22;11382;48.086;11.632;2023-05-10T05:36:00;12.50;99.90
22430;DHT22;11382;48.086;11.632;2023-05-10T05:38:29;12.50;99.90
22430;DHT22;11382;48.086;11.632;2023-05-10T05:40:57;12.60;99.90
22430;DHT22;11382;48.086;11.632;2023-05-10T05:43:25;12.60;99.90
22430;DHT22;11382;48.086;11.632;2023-05-10T05:45:53;12.60;99.90
22430;DHT22;11382;48.086;11.632;2023-05-10T05:48:22;12.60;99.90
22430;DHT22;11382;48.086;11.632;2023-05-10T05:50:54;12.60;99.90
22430;DHT22;11382;48.086;11.632;2023-05-10T05:53:24;12.40;99.90
22430;DHT22;11382;48.086;11.632;2023-05-10T05:55:55;12.40;99.90
22430;DHT22;11382;48.086;11.632;2023-05-10T05:58:25;12.20;99.90
22430;DHT22;11382;48.086;11.632;2023-05-10T06:00:53;12.10;99.90
22430;DHT22;11382;48.086;11.632;2023-05-10T06:03:21;12.00;99.90
22430;DHT22;11382;48.086;11.632;2023-05-10T06:05:49;12.00;99.90
22430;DHT22;11382;48.086;11.632;2023-05-10T06:08:19;12.10;99.90
22430;DHT22;11382;48.086;11.632;2023-05-10T06:10:49;12.20;99.90
22430;DHT22;11382;48.086;11.632;2023-05-10T06:13:17;12.30;99.90
22430;DHT22;11382;48.086;11.632;2023-05-10T06:15:46;12.40;99.90
22430;DHT22;11382;48.086;11.632;2023-05-10T06:18:14;12.40;99.90
22430;DHT22;11382;48.086;11.632;2023-05-10T06:20:42;12.50;99.90
22430;DHT22;11382;48.086;11.632;2023-05-10T06:23:10;12.60;99.90
22430;DHT22;11382;48.086;11.632;2023-05-10T06:25:39;12.70;99.90
22430;DHT22;11382;48.086;11.632;2023-05-10T06:28:07;12.80;99.90
22430;DHT22;11382;48.086;11.632;2023-05-10T06:30:36;13.00;99.90
22430;DHT22;11382;48.086;11.632;2023-05-10T06:33:04;13.20;99.90
22430;DHT22;11382;48.086;11.632;2023-05-10T06:35:32;13.30;99.90
22430;DHT22;11382;48.086;11.632;2023-05-10T06:38:01;13.30;99.90
22430;DHT22;11382;48.086;11.632;2023-05-10T06:40:29;13.50;99.90
22430;DHT22;11382;48.086;11.632;2023-05-10T06:42:59;13.50;99.90
22430;DHT22;11382;48.086;11.632;2023-05-10T06:45:27;13.60;99.90
22430;DHT22;11382;48.086;11.632;2023-05-10T06:47:55;13.80;99.90
22430;DHT22;11382;48.086;11.632;2023-05-10T06:50:23;14.20;99.90
22430;DHT22;11382;48.086;11.632;2023-05-10T06:52:51;14.60;99.90
22430;DHT22;11382;48.086;11.632;2023-05-10T06:55:19;14.90;99.90
22430;DHT22;11382;48.086;11.632;2023-05-10T06:57:47;15.20;99.90
22430;DHT22;11382;48.086;11.632;2023-05-10T07:00:17;15.50;99.90
22430;DHT22;11382;48.086;11.632;2023-05-10T07:02:46;15.70;99.90
22430;DHT22;11382;48.086;11.632;2023-05-10T07:05:14;15.60;99.90
22430;DHT22;11382;48.086;11.632;2023-05-10T07:07:43;15.40;99.90
22430;DHT22;11382;48.086;11.632;2023-05-10T07:10:11;15.20;99.90
22430;DHT22;11382;48.086;11.632;2023-05-10T07:12:39;15.10;99.90
22430;DHT22;11382;48.086;11.632;2023-05-10T07:15:08;15.10;99.90
22430;DHT22;11382;48.086;11.632;2023-05-10T07:17:38;15.30;99.90
22430;DHT22;11382;48.086;11.632;2023-05-10T07:20:09;15.50;99.90
22430;DHT22;11382;48.086;11.632;2023-05-10T07:22:37;15.60;99.90
22430;DHT22;11382;48.086;11.632;2023-05-10T07:25:06;16.00;99.90
22430;DHT22;11382;48.086;11.632;2023-05-10T07:27:35;16.40;99.90
22430;DHT22;11382;48.086;11.632;2023-05-10T07:30:04;16.70;99.90
22430;DHT22;11382;48.086;11.632;2023-05-10T07:32:33;16.90;99.90
22430;DHT22;11382;48.086;11.632;2023-05-10T07:35:03;16.50;99.90
22430;DHT22;11382;48.086;11.632;2023-05-10T07:37:31;16.50;99.90
22430;DHT22;11382;48.086;11.632;2023-05-10T07:39:59;16.50;99.90
22430;DHT22;11382;48.086;11.632;2023-05-10T07:42:27;16.40;99.90
22430;DHT22;11382;48.086;11.632;2023-05-10T07:44:55;16.40;99.90
22430;DHT22;11382;48.086;11.632;2023-05-10T07:47:25;16.10;99.90
22430;DHT22;11382;48.086;11.632;2023-05-10T07:49:53;16.00;99.90
22430;DHT22;11382;48.086;11.632;2023-05-10T07:52:22;16.90;99.90
22430;DHT22;11382;48.086;11.632;2023-05-10T07:54:50;18.30;99.90
22430;DHT22;11382;48.086;11.632;2023-05-10T07:57:18;18.60;99.90
22430;DHT22;11382;48.086;11.632;2023-05-10T07:59:46;19.30;99.90
22430;DHT22;11382;48.086;11.632;2023-05-10T08:02:14;19.80;99.90
22430;DHT22;11382;48.086;11.632;2023-05-10T08:04:43;20.30;99.90
22430;DHT22;11382;48.086;11.632;2023-05-10T08:07:13;20.40;99.90
22430;DHT22;11382;48.086;11.632;2023-05-10T08:09:44;21.30;99.90
22430;DHT22;11382;48.086;11.632;2023-05-10T08:12:12;21.70;99.90
22430;DHT22;11382;48.086;11.632;2023-05-10T08:14:40;21.60;99.90
22430;DHT22;11382;48.086;11.632;2023-05-10T08:17:08;22.10;99.90
22430;DHT22;11382;48.086;11.632;2023-05-10T08:19:36;22.20;99.90
22430;DHT22;11382;48.086;11.632;2023-05-10T08:22:04;21.50;99.90
22430;DHT22;11382;48.086;11.632;2023-05-10T08:24:32;21.80;99.90
22430;DHT22;11382;48.086;11.632;2023-05-10T08:27:02;22.00;99.90
22430;DHT22;11382;48.086;11.632;2023-05-10T08:29:30;21.70;99.90
22430;DHT22;11382;48.086;11.632;2023-05-10T08:32:12;21.60;99.90
22430;DHT22;11382;48.086;11.632;2023-05-10T08:34:41;21.20;99.90
22430;DHT22;11382;48.086;11.632;2023-05-10T08:37:08;21.30;99.90
22430;DHT22;11382;48.086;11.632;2023-05-10T08:39:39;20.80;99.90
22430;DHT22;11382;48.086;11.632;2023-05-10T08:42:09;20.50;99.90
22430;DHT22;11382;48.086;11.632;2023-05-10T08:44:37;19.40;99.90
22430;DHT22;11382;48.086;11.632;2023-05-10T08:47:05;18.40;99.90
22430;DHT22;11382;48.086;11.632;2023-05-10T08:49:34;17.80;99.90
22430;DHT22;11382;48.086;11.632;2023-05-10T08:52:03;17.30;99.90
22430;DHT22;11382;48.086;11.632;2023-05-10T08:54:32;16.70;99.90
22430;DHT22;11382;48.086;11.632;2023-05-10T08:57:01;16.30;99.90
22430;DHT22;11382;48.086;11.632;2023-05-10T08:59:31;16.00;99.90
22430;DHT22;11382;48.086;11.632;2023-05-10T09:02:00;15.70;99.90
22430;DHT22;11382;48.086;11.632;2023-05-10T09:04:29;15.50;99.90
22430;DHT22;11382;48.086;11.632;2023-05-10T09:06:58;15.40;99.90
22430;DHT22;11382;48.086;11.632;2023-05-10T09:09:27;15.30;99.90
22430;DHT22;11382;48.086;11.632;2023-05-10T09:11:55;15.30;99.90
22430;DHT22;11382;48.086;11.632;2023-05-10T09:14:24;15.10;99.90
22430;DHT22;11382;48.086;11.632;2023-05-10T09:16:54;15.20;99.90
22430;DHT22;11382;48.086;11.632;2023-05-10T09:19:22;15.50;99.90
22430;DHT22;11382;48.086;11.632;2023-05-10T09:21:50;15.80;99.90
22430;DHT22;11382;48.086;11.632;2023-05-10T09:24:18;16.30;99.90
22430;DHT22;11382;48.086;11.632;2023-05-10T09:26:47;16.70;99.90
22430;DHT22;11382;48.086;11.632;2023-05-10T09:29:16;16.90;99.90
22430;DHT22;11382;48.086;11.632;2023-05-10T09:31:46;17.00;99.90
22430;DHT22;11382;48.086;11.632;2023-05-10T09:34:19;16.90;99.90
22430;DHT22;11382;48.086;11.632;2023-05-10T09:36:52;16.70;99.90
22430;DHT22;11382;48.086;11.632;2023-05-10T09:39:21;16.50;99.90
22430;DHT22;11382;48.086;11.632;2023-05-10T09:41:58;16.20;99.90
22430;DHT22;11382;48.086;11.632;2023-05-10T09:44:26;15.90;99.90
22430;DHT22;11382;48.086;11.632;2023-05-10T09:46:54;16.00;99.90
22430;DHT22;11382;48.086;11.632;2023-05-10T09:49:23;16.00;99.90
22430;DHT22;11382;48.086;11.632;2023-05-10T09:52:00;16.30;99.90
22430;DHT22;11382;48.086;11.632;2023-05-10T09:54:29;17.00;99.90
22430;DHT22;11382;48.086;11.632;2023-05-10T09:56:57;18.10;99.90
22430;DHT22;11382;48.086;11.632;2023-05-10T09:59:26;19.40;99.90
22430;DHT22;11382;48.086;11.632;2023-05-10T10:01:56;19.60;99.90
22430;DHT22;11382;48.086;11.632;2023-05-10T10:04:26;19.10;99.90
22430;DHT22;11382;48.086;11.632;2023-05-10T10:07:02;18.80;99.90
22430;DHT22;11382;48.086;11.632;2023-05-10T10:09:31;19.10;99.90
22430;DHT22;11382;48.086;11.632;2023-05-10T10:12:00;19.30;99.90
22430;DHT22;11382;48.086;11.632;2023-05-10T10:14:29;19.50;99.90
22430;DHT22;11382;48.086;11.632;2023-05-10T10:16:57;19.50;99.90
22430;DHT22;11382;48.086;11.632;2023-05-10T10:19:32;20.00;99.90
22430;DHT22;11382;48.086;11.632;2023-05-10T10:22:01;20.50;99.90
22430;DHT22;11382;48.086;11.632;2023-05-10T10:24:29;21.50;99.90
22430;DHT22;11382;48.086;11.632;2023-05-10T10:27:03;21.50;99.90
22430;DHT22;11382;48.086;11.632;2023-05-10T10:29:36;21.00;99.90
22430;DHT22;11382;48.086;11.632;2023-05-10T10:32:12;20.60;99.90
22430;DHT22;11382;48.086;11.632;2023-05-10T10:34:48;20.40;99.90
22430;DHT22;11382;48.086;11.632;2023-05-10T10:37:17;20.20;99.90
22430;DHT22;11382;48.086;11.632;2023-05-10T10:39:48;20.40;99.90
22430;DHT22;11382;48.086;11.632;2023-05-10T10:42:43;20.40;99.90
22430;DHT22;11382;48.086;11.632;2023-05-10T10:45:12;20.40;99.90
22430;DHT22;11382;48.086;11.632;2023-05-10T10:47:41;20.40;99.90
22430;DHT22;11382;48.086;11.632;2023-05-10T10:50:11;20.80;99.90
22430;DHT22;11382;48.086;11.632;2023-05-10T10:52:42;22.10;99.90
22430;DHT22;11382;48.086;11.632;2023-05-10T10:55:11;22.90;99.90
22430;DHT22;11382;48.086;11.632;2023-05-10T10:57:45;22.70;99.90
22430;DHT22;11382;48.086;11.632;2023-05-10T11:00:22;22.10;99.90
22430;DHT22;11382;48.086;11.632;2023-05-10T11:02:52;22.10;99.90
22430;DHT22;11382;48.086;11.632;2023-05-10T11:05:46;21.90;99.90
22430;DHT22;11382;48.086;11.632;2023-05-10T11:08:19;21.20;99.90
22430;DHT22;11382;48.086;11.632;2023-05-10T11:11:02;20.50;99.90
22430;DHT22;11382;48.086;11.632;2023-05-10T11:13:32;20.20;99.90
22430;DHT22;11382;48.086;11.632;2023-05-10T11:16:13;19.70;99.90
22430;DHT22;11382;48.086;11.632;2023-05-10T11:19:01;19.30;99.90
22430;DHT22;11382;48.086;11.632;2023-05-10T11:21:32;18.50;99.90
22430;DHT22;11382;48.086;11.632;2023-05-10T11:24:01;17.70;99.90
22430;DHT22;11382;48.086;11.632;2023-05-10T11:26:35;17.00;99.90
22430;DHT22;11382;48.086;11.632;2023-05-10T11:29:03;16.30;99.90
22430;DHT22;11382;48.086;11.632;2023-05-10T11:31:32;15.90;99.90
22430;DHT22;11382;48.086;11.632;2023-05-10T11:34:00;15.80;99.90
22430;DHT22;11382;48.086;11.632;2023-05-10T11:36:35;15.70;99.90
22430;DHT22;11382;48.086;11.632;2023-05-10T11:39:04;15.70;99.90
22430;DHT22;11382;48.086;11.632;2023-05-10T11:41:32;15.50;99.90
22430;DHT22;11382;48.086;11.632;2023-05-10T11:44:01;15.50;99.90
22430;DHT22;11382;48.086;11.632;2023-05-10T11:46:29;15.30;99.90
22430;DHT22;11382;48.086;11.632;2023-05-10T11:49:00;15.20;99.90
22430;DHT22;11382;48.086;11.632;2023-05-10T11:51:34;15.20;99.90
22430;DHT22;11382;48.086;11.632;2023-05-10T11:54:06;15.00;99.90
22430;DHT22;11382;48.086;11.632;2023-05-10T11:56:36;14.90;99.90
22430;DHT22;11382;48.086;11.632;2023-05-10T11:59:04;14.50;99.90
22430;DHT22;11382;48.086;11.632;2023-05-10T12:01:32;14.00;99.90
22430;DHT22;11382;48.086;11.632;2023-05-10T12:04:01;13.80;99.90
22430;DHT22;11382;48.086;11.632;2023-05-10T12:06:31;13.70;99.90
22430;DHT22;11382;48.086;11.632;2023-05-10T12:09:06;13.60;99.90
22430;DHT22;11382;48.086;11.632;2023-05-10T12:11:38;13.50;99.90
22430;DHT22;11382;48.086;11.632;2023-05-10T12:14:09;13.30;99.90
22430;DHT22;11382;48.086;11.632;2023-05-10T12:16:37;13.20;99.90
22430;DHT22;11382;48.086;11.632;2023-05-10T12:19:07;13.20;99.90
22430;DHT22;11382;48.086;11.632;2023-05-10T12:21:35;13.20;99.90
22430;DHT22;11382;48.086;11.632;2023-05-10T12:24:07;13.10;99.90
22430;DHT22;11382;48.086;11.632;2023-05-10T12:26:36;13.20;99.90
22430;DHT22;11382;48.086;11.632;2023-05-10T12:29:14;13.30;99.90
22430;DHT22;11382;48.086;11.632;2023-05-10T12:31:52;13.40;99.90
22430;DHT22;11382;48.086;11.632;2023-05-10T12:34:25;13.60;99.90
22430;DHT22;11382;48.086;11.632;2023-05-10T12:36:54;13.70;99.90
22430;DHT22;11382;48.086;11.632;2023-05-10T12:39:24;13.80;99.90
22430;DHT22;11382;48.086;11.632;2023-05-10T12:41:52;13.80;99.90
22430;DHT22;11382;48.086;11.632;2023-05-10T12:44:20;13.80;99.90
22430;DHT22;11382;48.086;11.632;2023-05-10T12:46:48;13.70;99.90
22430;DHT22;11382;48.086;11.632;2023-05-10T12:49:16;13.60;99.90
22430;DHT22;11382;48.086;11.632;2023-05-10T12:51:45;13.60;99.90
22430;DHT22;11382;48.086;11.632;2023-05-10T12:54:13;13.70;99.90
22430;DHT22;11382;48.086;11.632;2023-05-10T12:56:43;13.70;99.90
22430;DHT22;11382;48.086;11.632;2023-05-10T12:59:11;13.80;99.90
22430;DHT22;11382;48.086;11.632;2023-05-10T13:01:39;13.90;99.90
22430;DHT22;11382;48.086;11.632;2023-05-10T13:04:07;14.00;99.90
22430;DHT22;11382;48.086;11.632;2023-05-10T13:06:35;14.00;99.90
22430;DHT22;11382;48.086;11.632;2023-05-10T13:09:03;13.90;99.90
22430;DHT22;11382;48.086;11.632;2023-05-10T13:11:31;13.90;99.90
22430;DHT22;11382;48.086;11.632;2023-05-10T13:14:00;13.90;99.90
22430;DHT22;11382;48.086;11.632;2023-05-10T13:16:29;14.10;99.90
22430;DHT22;11382;48.086;11.632;2023-05-10T13:18:59;14.30;99.90
22430;DHT22;11382;48.086;11.632;2023-05-10T13:21:27;14.20;99.90
22430;DHT22;11382;48.086;11.632;2023-05-10T13:23:55;14.20;99.90
22430;DHT22;11382;48.086;11.632;2023-05-10T13:26:23;14.00;99.90
22430;DHT22;11382;48.086;11.632;2023-05-10T13:28:53;14.10;99.90
22430;DHT22;11382;48.086;11.632;2023-05-10T13:31:23;14.20;99.90
22430;DHT22;11382;48.086;11.632;2023-05-10T13:33:51;14.20;99.90
22430;DHT22;11382;48.086;11.632;2023-05-10T13:36:19;14.30;99.90
22430;DHT22;11382;48.086;11.632;2023-05-10T13:38:47;14.40;99.90
22430;DHT22;11382;48.086;11.632;2023-05-10T13:41:15;14.40;99.90
22430;DHT22;11382;48.086;11.632;2023-05-10T13:43:43;14.40;99.90
22430;DHT22;11382;48.086;11.632;2023-05-10T13:46:11;14.40;99.90
22430;DHT22;11382;48.086;11.632;2023-05-10T13:48:43;14.30;99.90
22430;DHT22;11382;48.086;11.632;2023-05-10T13:51:11;14.20;99.90
22430;DHT22;11382;48.086;11.632;2023-05-10T13:53:39;13.90;99.90
22430;DHT22;11382;48.086;11.632;2023-05-10T13:56:08;13.80;99.90
22430;DHT22;11382;48.086;11.632;2023-05-10T13:58:36;13.70;99.90
22430;DHT22;11382;48.086;11.632;2023-05-10T14:01:04;13.70;99.90
22430;DHT22;11382;48.086;11.632;2023-05-10T14:03:32;13.60;99.90
22430;DHT22;11382;48.086;11.632;2023-05-10T14:06:02;13.50;99.90
22430;DHT22;11382;48.086;11.632;2023-05-10T14:08:30;13.50;99.90
22430;DHT22;11382;48.086;11.632;2023-05-10T14:10:58;13.50;99.90
22430;DHT22;11382;48.086;11.632;2023-05-10T14:13:26;13.60;99.90
22430;DHT22;11382;48.086;11.632;2023-05-10T14:15:54;13.90;99.90
22430;DHT22;11382;48.086;11.632;2023-05-10T14:18:22;14.00;99.90
22430;DHT22;11382;48.086;11.632;2023-05-10T14:20:51;14.10;99.90
22430;DHT22;11382;48.086;11.632;2023-05-10T14:23:21;14.30;99.90
22430;DHT22;11382;48.086;11.632;2023-05-10T14:25:50;14.30;99.90
22430;DHT22;11382;48.086;11.632;2023-05-10T14:28:19;14.30;99.90
22430;DHT22;11382;48.086;11.632;2023-05-10T14:30:47;14.30;99.90
22430;DHT22;11382;48.086;11.632;2023-05-10T14:33:16;14.50;99.90
22430;DHT22;11382;48.086;11.632;2023-05-10T14:35:45;14.50;99.90
22430;DHT22;11382;48.086;11.632;2023-05-10T14:38:13;14.50;99.90
22430;DHT22;11382;48.086;11.632;2023-05-10T14:40:42;14.50;99.90
22430;DHT22;11382;48.086;11.632;2023-05-10T14:43:10;14.40;99.90
22430;DHT22;11382;48.086;11.632;2023-05-10T14:45:39;14.40;99.90
22430;DHT22;11382;48.086;11.632;2023-05-10T14:48:07;14.40;99.90
22430;DHT22;11382;48.086;11.632;2023-05-10T14:50:38;14.40;99.90
22430;DHT22;11382;48.086;11.632;2023-05-10T14:53:06;14.50;99.90
22430;DHT22;11382;48.086;11.632;2023-05-10T14:55:34;14.50;99.90
22430;DHT22;11382;48.086;11.632;2023-05-10T14:58:05;14.60;99.90
22430;DHT22;11382;48.086;11.632;2023-05-10T15:00:35;14.50;99.90
22430;DHT22;11382;48.086;11.632;2023-05-10T15:03:07;14.30;99.90
22430;DHT22;11382;48.086;11.632;2023-05-10T15:05:35;14.20;99.90
22430;DHT22;11382;48.086;11.632;2023-05-10T15:08:04;14.00;99.90
22430;DHT22;11382;48.086;11.632;2023-05-10T15:10:32;13.80;99.90
22430;DHT22;11382;48.086;11.632;2023-05-10T15:13:00;13.70;99.90
22430;DHT22;11382;48.086;11.632;2023-05-10T15:15:30;13.40;99.90
22430;DHT22;11382;48.086;11.632;2023-05-10T15:17:58;13.30;99.90
22430;DHT22;11382;48.086;11.632;2023-05-10T15:20:26;13.30;99.90
22430;DHT22;11382;48.086;11.632;2023-05-10T15:22:54;13.50;99.90
22430;DHT22;11382;48.086;11.632;2023-05-10T15:25:22;13.40;99.90
22430;DHT22;11382;48.086;11.632;2023-05-10T15:27:50;13.30;99.90
22430;DHT22;11382;48.086;11.632;2023-05-10T15:30:18;13.20;99.90
22430;DHT22;11382;48.086;11.632;2023-05-10T15:32:48;13.10;99.90
22430;DHT22;11382;48.086;11.632;2023-05-10T15:35:16;13.00;99.90